Time;durP1;ratioP1;P1;durP2;ratioP2;P2;SDS_P1;SDS_P2;PMS_P1;PMS_P2;Temp;Humidity;BMP_temperature;BMP_pressure;BME280_temperature;BME280_humidity;BME280_pressure;Samples;Min_cycle;Max_cycle;Signal;HPM_P1;HPM_P2
2023/08/07 00:01:28;;;;;;;1.95;1.20;;;;;;;;;;4955316;28;20027;-63
2023/08/07 00:03:54;;;;;;;1.73;1.10;;;;;;;;;;4950434;28;20051;-66
2023/08/07 00:06:19;;;;;;;2.22;1.20;;;;;;;;;;4936039;29;20086;-63
2023/08/07 00:08:44;;;;;;;2.63;1.15;;;;;;;;;;4935856;29;20149;-63
2023/08/07 00:11:10;;;;;;;1.77;1.10;;;;;;;;;;4935962;29;20245;-63
2023/08/07 00:13:36;;;;;;;5.07;1.23;;;;;;;;;;4936215;29;20106;-62
2023/08/07 00:16:01;;;;;;;4.07;1.25;;;;;;;;;;4935832;29;20041;-62
2023/08/07 00:18:28;;;;;;;2.58;1.13;;;;;;;;;;4936122;29;20123;-66
2023/08/07 00:20:53;;;;;;;3.92;1.17;;;;;;;;;;4935815;29;20024;-66
2023/08/07 00:23:19;;;;;;;3.00;1.40;;;;;;;;;;4935742;29;20027;-61
2023/08/07 00:25:44;;;;;;;2.05;1.25;;;;;;;;;;4935657;29;20470;-67
2023/08/07 00:28:09;;;;;;;2.20;1.15;;;;;;;;;;4935609;29;20034;-66
2023/08/07 00:30:35;;;;;;;2.33;1.27;;;;;;;;;;4935353;29;20481;-66
2023/08/07 00:33:00;;;;;;;3.10;1.00;;;;;;;;;;4935649;29;20111;-66
2023/08/07 00:35:26;;;;;;;16.65;2.35;;;;;;;;;;4946553;28;20033;-66
2023/08/07 00:37:51;;;;;;;2.95;1.10;;;;;;;;;;4954765;28;20389;-67
2023/08/07 00:40:17;;;;;;;1.95;0.85;;;;;;;;;;4954438;28;20520;-67
2023/08/07 00:42:42;;;;;;;4.00;1.38;;;;;;;;;;4954585;28;20554;-65
2023/08/07 00:45:08;;;;;;;7.10;1.45;;;;;;;;;;4959830;28;20495;-66
2023/08/07 00:47:34;;;;;;;1.88;1.10;;;;;;;;;;4973603;28;20062;-67
2023/08/07 00:50:02;;;;;;;2.08;1.15;;;;;;;;;;4973802;28;20062;-66
2023/08/07 00:52:27;;;;;;;3.03;1.10;;;;;;;;;;4959133;28;20038;-66
2023/08/07 00:54:52;;;;;;;4.05;1.63;;;;;;;;;;4954241;28;20019;-65
2023/08/07 00:57:22;;;;;;;2.95;2.03;;;;;;;;;;4954314;28;20114;-66
2023/08/07 00:59:48;;;;;;;2.00;1.48;;;;;;;;;;4954184;28;20114;-67
2023/08/07 01:02:14;;;;;;;2.78;1.40;;;;;;;;;;4954246;28;20028;-65
2023/08/07 01:04:40;;;;;;;2.50;1.13;;;;;;;;;;4943216;28;20024;-66
2023/08/07 01:07:06;;;;;;;2.63;1.00;;;;;;;;;;4935048;29;20496;-64
2023/08/07 01:09:32;;;;;;;3.00;1.20;;;;;;;;;;4934614;29;20040;-63
2023/08/07 01:12:19;;;;;;;2.80;1.30;;;;;;;;;;4935063;29;20253;-65
2023/08/07 01:15:01;;;;;;;2.65;1.27;;;;;;;;;;4934821;29;20039;-66
2023/08/07 01:17:27;;;;;;;3.13;1.25;;;;;;;;;;4934654;29;20027;-67
2023/08/07 01:19:53;;;;;;;2.50;1.20;;;;;;;;;;4934841;29;20035;-66
2023/08/07 01:22:19;;;;;;;2.00;1.10;;;;;;;;;;4934556;29;20020;-64
2023/08/07 01:24:47;;;;;;;3.13;1.55;;;;;;;;;;4934897;29;20023;-64
2023/08/07 01:27:18;;;;;;;2.55;1.35;;;;;;;;;;4934669;29;20042;-65
2023/08/07 01:30:06;;;;;;;1.55;1.08;;;;;;;;;;4934528;29;20028;-65
2023/08/07 01:32:40;;;;;;;2.78;1.17;;;;;;;;;;4934723;29;20441;-65
2023/08/07 01:35:06;;;;;;;2.28;1.30;;;;;;;;;;4942935;28;20030;-66
2023/08/07 01:37:36;;;;;;;3.95;2.47;;;;;;;;;;4953469;28;20491;-67
2023/08/07 01:40:03;;;;;;;2.42;1.00;;;;;;;;;;4953549;28;20031;-69
2023/08/07 01:42:29;;;;;;;2.63;1.20;;;;;;;;;;4952941;28;20110;-63
2023/08/07 01:44:55;;;;;;;1.90;0.90;;;;;;;;;;4957025;28;20129;-67
2023/08/07 01:47:20;;;;;;;2.33;1.20;;;;;;;;;;4972783;28;20029;-63
2023/08/07 01:49:45;;;;;;;2.67;1.20;;;;;;;;;;4972763;28;20023;-67
2023/08/07 01:52:12;;;;;;;2.20;1.13;;;;;;;;;;4959976;28;20441;-65
2023/08/07 01:54:37;;;;;;;3.40;1.50;;;;;;;;;;4953364;28;20030;-64
2023/08/07 01:57:03;;;;;;;3.17;1.27;;;;;;;;;;4953310;29;20420;-62
2023/08/07 01:59:28;;;;;;;4.15;1.33;;;;;;;;;;4953287;28;20154;-67
2023/08/07 02:01:54;;;;;;;3.35;1.20;;;;;;;;;;4953352;28;20027;-68
2023/08/07 02:04:19;;;;;;;2.55;1.23;;;;;;;;;;4945015;28;20469;-68
2023/08/07 02:06:44;;;;;;;2.58;1.10;;;;;;;;;;4933897;29;20030;-67
2023/08/07 02:09:10;;;;;;;2.72;1.20;;;;;;;;;;4933940;29;20524;-65
2023/08/07 02:11:35;;;;;;;2.88;1.10;;;;;;;;;;4933947;29;20111;-62
2023/08/07 02:14:01;;;;;;;4.38;1.20;;;;;;;;;;4933851;29;20050;-65
2023/08/07 02:16:26;;;;;;;5.65;1.30;;;;;;;;;;4933778;29;20067;-66
2023/08/07 02:18:51;;;;;;;2.25;1.10;;;;;;;;;;4933803;29;20023;-64
2023/08/07 02:21:17;;;;;;;1.77;1.10;;;;;;;;;;4933523;29;20024;-67
2023/08/07 02:23:42;;;;;;;2.42;1.25;;;;;;;;;;4933881;29;20355;-68
2023/08/07 02:26:08;;;;;;;2.88;1.20;;;;;;;;;;4933735;29;20036;-68
2023/08/07 02:28:34;;;;;;;1.85;1.20;;;;;;;;;;4933571;29;20035;-65
2023/08/07 02:30:59;;;;;;;2.65;1.10;;;;;;;;;;4933632;29;20099;-68
2023/08/07 02:33:25;;;;;;;2.75;1.00;;;;;;;;;;4933500;29;20115;-66
2023/08/07 02:35:51;;;;;;;2.30;1.27;;;;;;;;;;4947530;28;20432;-65
2023/08/07 02:38:16;;;;;;;2.92;1.17;;;;;;;;;;4952646;28;20476;-66
2023/08/07 02:40:42;;;;;;;2.70;1.45;;;;;;;;;;4952781;28;20481;-64
2023/08/07 02:43:08;;;;;;;2.78;1.17;;;;;;;;;;4952490;28;20405;-66
2023/08/07 02:45:34;;;;;;;2.17;1.25;;;;;;;;;;4961150;28;20109;-66
2023/08/07 02:48:00;;;;;;;2.42;1.50;;;;;;;;;;4971815;28;20022;-63
2023/08/07 02:50:27;;;;;;;3.33;1.40;;;;;;;;;;4971778;28;20033;-63
2023/08/07 02:52:54;;;;;;;3.08;1.50;;;;;;;;;;4953682;28;20051;-65
2023/08/07 02:55:20;;;;;;;4.00;1.50;;;;;;;;;;4956683;28;20472;-66
2023/08/07 02:57:45;;;;;;;4.57;1.60;;;;;;;;;;4956507;28;20267;-64
2023/08/07 03:00:11;;;;;;;2.95;1.65;;;;;;;;;;4956563;28;20034;-66
2023/08/07 03:02:36;;;;;;;2.50;1.60;;;;;;;;;;4956559;28;20110;-66
2023/08/07 03:05:02;;;;;;;2.97;1.50;;;;;;;;;;4942245;29;20039;-65
2023/08/07 03:07:28;;;;;;;4.03;1.50;;;;;;;;;;4937144;29;20402;-66
2023/08/07 03:09:53;;;;;;;1.98;1.13;;;;;;;;;;4937379;29;20036;-65
2023/08/07 03:12:18;;;;;;;1.52;1.05;;;;;;;;;;4937149;29;20028;-67
2023/08/07 03:14:44;;;;;;;3.03;1.42;;;;;;;;;;4937132;29;20040;-66
2023/08/07 03:17:09;;;;;;;2.78;1.50;;;;;;;;;;4936996;29;20019;-64
2023/08/07 03:19:35;;;;;;;2.58;1.50;;;;;;;;;;4938125;29;20115;-64
2023/08/07 03:22:00;;;;;;;3.33;1.40;;;;;;;;;;4956111;28;20034;-62
2023/08/07 03:24:25;;;;;;;3.75;1.80;;;;;;;;;;4955885;28;20027;-64
2023/08/07 03:26:51;;;;;;;2.63;1.70;;;;;;;;;;4955994;28;20031;-66
2023/08/07 03:29:16;;;;;;;3.15;1.80;;;;;;;;;;4955751;28;20053;-66
2023/08/07 03:31:42;;;;;;;3.95;1.67;;;;;;;;;;4955935;28;20059;-66
2023/08/07 03:34:07;;;;;;;4.50;1.90;;;;;;;;;;4955627;28;20103;-65
2023/08/07 03:36:33;;;;;;;4.47;1.70;;;;;;;;;;4957992;28;20137;-66
2023/08/07 03:38:58;;;;;;;4.47;1.73;;;;;;;;;;4955940;28;20067;-62
2023/08/07 03:41:24;;;;;;;3.35;1.70;;;;;;;;;;4955536;28;20055;-63
2023/08/07 03:43:49;;;;;;;4.45;1.75;;;;;;;;;;4955583;28;20047;-66
2023/08/07 03:46:15;;;;;;;3.17;1.60;;;;;;;;;;4969042;28;20491;-63
2023/08/07 03:48:40;;;;;;;4.00;2.75;;;;;;;;;;4955324;28;20035;-67
2023/08/07 03:51:10;;;;;;;3.45;2.00;;;;;;;;;;4955657;28;20434;-64
2023/08/07 03:53:36;;;;;;;4.57;1.55;;;;;;;;;;4955490;28;20362;-66
2023/08/07 03:56:02;;;;;;;3.60;1.40;;;;;;;;;;4955156;28;20388;-65
2023/08/07 03:58:28;;;;;;;3.17;1.50;;;;;;;;;;4955321;29;20023;-65
2023/08/07 04:00:53;;;;;;;2.60;1.48;;;;;;;;;;4955414;28;20030;-66
2023/08/07 04:03:20;;;;;;;2.28;1.27;;;;;;;;;;4955004;28;20385;-64
2023/08/07 04:05:46;;;;;;;2.90;1.40;;;;;;;;;;4935288;29;20466;-67
2023/08/07 04:08:11;;;;;;;2.78;1.40;;;;;;;;;;4935854;29;20082;-65
2023/08/07 04:10:36;;;;;;;3.28;1.42;;;;;;;;;;4939179;29;20031;-65
2023/08/07 04:13:02;;;;;;;2.33;1.50;;;;;;;;;;4955253;28;20038;-67
2023/08/07 04:15:27;;;;;;;2.53;1.30;;;;;;;;;;4955152;28;20370;-67
2023/08/07 04:17:53;;;;;;;3.63;1.52;;;;;;;;;;4954944;28;20385;-66
2023/08/07 04:20:20;;;;;;;2.53;1.40;;;;;;;;;;4954978;28;20110;-66
2023/08/07 04:22:46;;;;;;;4.43;2.00;;;;;;;;;;4955064;28;20081;-66
2023/08/07 04:25:12;;;;;;;2.47;1.30;;;;;;;;;;4954941;28;20023;-65
2023/08/07 04:27:38;;;;;;;4.63;1.40;;;;;;;;;;4955003;28;20396;-64
2023/08/07 04:30:05;;;;;;;3.75;1.55;;;;;;;;;;4954887;28;20035;-67
2023/08/07 04:32:30;;;;;;;3.83;1.35;;;;;;;;;;4954720;28;20027;-66
2023/08/07 04:34:55;;;;;;;2.72;1.45;;;;;;;;;;4957228;28;20654;-65
2023/08/07 04:37:21;;;;;;;3.58;1.48;;;;;;;;;;4954783;28;20031;-65
2023/08/07 04:39:48;;;;;;;3.65;1.60;;;;;;;;;;4955594;28;20450;-62
2023/08/07 04:42:13;;;;;;;1.70;1.20;;;;;;;;;;4954918;28;20063;-65
2023/08/07 04:44:38;;;;;;;3.72;1.80;;;;;;;;;;4956491;28;20126;-63
2023/08/07 04:47:04;;;;;;;3.38;1.55;;;;;;;;;;4974049;28;20027;-66
2023/08/07 04:49:29;;;;;;;3.53;1.45;;;;;;;;;;4974008;28;20037;-65
2023/08/07 04:51:55;;;;;;;3.28;1.17;;;;;;;;;;4963996;28;20070;-67
2023/08/07 04:54:20;;;;;;;3.50;1.40;;;;;;;;;;4954886;28;20469;-63
2023/08/07 04:56:46;;;;;;;2.53;1.40;;;;;;;;;;4954772;28;20111;-63
2023/08/07 04:59:11;;;;;;;2.30;1.30;;;;;;;;;;4954580;28;20034;-65
2023/08/07 05:01:37;;;;;;;3.05;1.50;;;;;;;;;;4954528;28;20045;-66
2023/08/07 05:04:04;;;;;;;1.98;1.20;;;;;;;;;;4948617;28;20110;-68
2023/08/07 05:06:29;;;;;;;3.63;1.40;;;;;;;;;;4935553;29;20024;-68
2023/08/07 05:08:55;;;;;;;2.03;1.30;;;;;;;;;;4935261;29;20353;-67
2023/08/07 05:11:20;;;;;;;1.50;1.00;;;;;;;;;;4935062;29;20055;-67
2023/08/07 05:13:45;;;;;;;4.22;1.30;;;;;;;;;;4935329;29;20492;-68
2023/08/07 05:16:11;;;;;;;2.38;1.30;;;;;;;;;;4934689;29;20036;-68
2023/08/07 05:18:36;;;;;;;2.53;1.30;;;;;;;;;;4934413;29;20024;-66
2023/08/07 05:21:02;;;;;;;1.25;0.85;;;;;;;;;;4933872;28;20055;-67
2023/08/07 05:23:27;;;;;;;2.28;1.40;;;;;;;;;;4935002;29;20518;-68
2023/08/07 05:25:53;;;;;;;2.08;0.98;;;;;;;;;;4934850;29;20024;-67
2023/08/07 05:28:18;;;;;;;2.05;1.20;;;;;;;;;;4934746;29;20113;-67
2023/08/07 05:30:43;;;;;;;2.85;1.38;;;;;;;;;;4934810;29;20024;-67
2023/08/07 05:33:09;;;;;;;1.85;1.08;;;;;;;;;;4934802;29;20474;-69
2023/08/07 05:35:34;;;;;;;2.53;1.30;;;;;;;;;;4946738;28;20035;-68
2023/08/07 05:37:59;;;;;;;1.73;1.10;;;;;;;;;;4953929;28;20031;-66
2023/08/07 05:40:25;;;;;;;4.53;1.00;;;;;;;;;;4953855;28;20023;-66
2023/08/07 05:42:50;;;;;;;7.63;1.50;;;;;;;;;;4953681;28;20019;-67
2023/08/07 05:45:16;;;;;;;3.63;1.30;;;;;;;;;;4959857;28;20027;-66
2023/08/07 05:47:41;;;;;;;5.30;1.75;;;;;;;;;;4972988;28;20388;-62
2023/08/07 05:50:07;;;;;;;3.80;1.23;;;;;;;;;;4972914;28;20034;-65
2023/08/07 05:52:33;;;;;;;2.90;1.45;;;;;;;;;;4957813;28;20059;-62
2023/08/07 05:54:58;;;;;;;1.90;1.05;;;;;;;;;;4953347;28;20326;-62
2023/08/07 05:57:23;;;;;;;1.73;1.02;;;;;;;;;;4953333;28;20301;-62
2023/08/07 05:59:49;;;;;;;2.03;1.17;;;;;;;;;;4953403;28;20230;-62
2023/08/07 06:02:14;;;;;;;2.10;1.00;;;;;;;;;;4953457;28;20091;-62
2023/08/07 06:04:40;;;;;;;1.95;1.00;;;;;;;;;;4942608;28;20358;-62
2023/08/07 06:07:07;;;;;;;3.45;1.30;;;;;;;;;;4934172;29;20098;-62
2023/08/07 06:09:33;;;;;;;2.97;1.20;;;;;;;;;;4933898;29;20027;-62
2023/08/07 06:11:58;;;;;;;3.88;1.50;;;;;;;;;;4934198;29;20032;-62
2023/08/07 06:14:25;;;;;;;2.83;1.40;;;;;;;;;;4934026;29;20110;-63
2023/08/07 06:16:51;;;;;;;4.05;1.80;;;;;;;;;;4934112;29;20027;-62
2023/08/07 06:19:16;;;;;;;3.28;1.48;;;;;;;;;;4934129;29;20034;-63
2023/08/07 06:21:42;;;;;;;3.10;1.58;;;;;;;;;;4934308;29;20082;-62
2023/08/07 06:24:07;;;;;;;2.33;1.60;;;;;;;;;;4934004;29;20090;-63
2023/08/07 06:26:32;;;;;;;4.10;1.85;;;;;;;;;;4946219;29;20283;-62
2023/08/07 06:28:58;;;;;;;3.45;1.65;;;;;;;;;;4952557;28;20547;-63
2023/08/07 06:31:23;;;;;;;4.07;1.90;;;;;;;;;;4950092;28;20028;-63
2023/08/07 06:33:49;;;;;;;4.03;1.80;;;;;;;;;;4950532;28;20031;-62
2023/08/07 06:36:15;;;;;;;3.33;1.70;;;;;;;;;;4950443;28;20035;-62
2023/08/07 06:38:40;;;;;;;4.13;1.90;;;;;;;;;;4955395;28;20031;-62
2023/08/07 06:41:05;;;;;;;3.55;1.85;;;;;;;;;;4954586;28;20070;-62
2023/08/07 06:43:31;;;;;;;3.75;1.98;;;;;;;;;;4959765;28;20047;-62
2023/08/07 06:45:57;;;;;;;5.75;1.90;;;;;;;;;;4966265;28;20117;-62
2023/08/07 06:48:22;;;;;;;2.95;1.92;;;;;;;;;;4954972;28;20031;-62
2023/08/07 06:50:51;;;;;;;4.07;1.40;;;;;;;;;;4954324;28;20031;-62
2023/08/07 06:53:16;;;;;;;6.60;2.20;;;;;;;;;;4954200;28;20023;-62
2023/08/07 06:55:42;;;;;;;2.92;1.83;;;;;;;;;;4958541;28;20039;-61
2023/08/07 06:58:08;;;;;;;5.78;1.95;;;;;;;;;;4954481;28;20120;-62
2023/08/07 07:00:35;;;;;;;6.97;2.10;;;;;;;;;;4954480;28;20104;-61
2023/08/07 07:03:01;;;;;;;4.80;2.25;;;;;;;;;;4954552;28;20028;-61
2023/08/07 07:05:26;;;;;;;4.18;2.30;;;;;;;;;;4954038;29;20382;-62
2023/08/07 07:07:52;;;;;;;3.40;2.03;;;;;;;;;;4954574;28;20032;-60
2023/08/07 07:10:17;;;;;;;5.53;2.33;;;;;;;;;;4954409;28;20032;-63
2023/08/07 07:12:43;;;;;;;6.55;2.30;;;;;;;;;;4954688;28;20028;-63
2023/08/07 07:15:09;;;;;;;4.88;2.25;;;;;;;;;;4954366;28;20069;-60
2023/08/07 07:17:34;;;;;;;5.22;2.25;;;;;;;;;;4953615;28;20031;-61
2023/08/07 07:20:00;;;;;;;5.80;2.30;;;;;;;;;;4954091;28;20046;-63
2023/08/07 07:22:25;;;;;;;4.20;2.00;;;;;;;;;;4953999;28;20027;-63
2023/08/07 07:24:51;;;;;;;3.80;2.25;;;;;;;;;;4953745;28;20027;-62
2023/08/07 07:27:16;;;;;;;5.15;1.98;;;;;;;;;;4953643;28;20038;-62
2023/08/07 07:29:42;;;;;;;4.28;2.00;;;;;;;;;;4953612;28;20027;-61
2023/08/07 07:32:07;;;;;;;3.75;1.45;;;;;;;;;;4954146;28;20026;-60
2023/08/07 07:34:33;;;;;;;6.57;2.00;;;;;;;;;;4952004;28;20086;-63
2023/08/07 07:36:58;;;;;;;4.85;2.13;;;;;;;;;;4953034;28;20038;-60
2023/08/07 07:39:24;;;;;;;4.38;1.85;;;;;;;;;;4953324;28;20035;-61
2023/08/07 07:41:49;;;;;;;2.97;1.70;;;;;;;;;;4956913;28;20385;-61
2023/08/07 07:44:15;;;;;;;2.60;1.80;;;;;;;;;;4957145;28;20042;-63
2023/08/07 07:46:40;;;;;;;3.42;1.80;;;;;;;;;;4959868;28;20019;-61
2023/08/07 07:49:06;;;;;;;3.80;1.90;;;;;;;;;;4957288;28;20366;-61
2023/08/07 07:51:32;;;;;;;3.67;2.03;;;;;;;;;;4957462;28;20039;-61
2023/08/07 07:53:58;;;;;;;2.95;1.67;;;;;;;;;;4957324;28;20481;-61
2023/08/07 07:56:23;;;;;;;4.93;1.88;;;;;;;;;;4957487;28;20031;-63
2023/08/07 07:58:49;;;;;;;5.43;1.80;;;;;;;;;;4957571;28;20552;-61
2023/08/07 08:01:14;;;;;;;4.70;1.70;;;;;;;;;;4957520;28;20031;-62
2023/08/07 08:03:40;;;;;;;3.03;1.80;;;;;;;;;;4954097;29;20358;-64
2023/08/07 08:06:05;;;;;;;2.70;1.55;;;;;;;;;;4938183;29;20055;-61
2023/08/07 08:08:31;;;;;;;2.63;1.50;;;;;;;;;;4937811;29;20027;-61
2023/08/07 08:10:56;;;;;;;2.85;1.88;;;;;;;;;;4938101;29;20028;-60
2023/08/07 08:13:22;;;;;;;2.50;1.80;;;;;;;;;;4938205;29;20107;-60
2023/08/07 08:15:47;;;;;;;5.35;1.77;;;;;;;;;;4938007;29;20165;-61
2023/08/07 08:18:13;;;;;;;2.50;1.60;;;;;;;;;;4938017;29;20102;-64
2023/08/07 08:20:38;;;;;;;3.05;1.60;;;;;;;;;;4938353;29;20032;-63
2023/08/07 08:23:04;;;;;;;2.58;1.65;;;;;;;;;;4937905;29;20032;-60
2023/08/07 08:25:31;;;;;;;4.65;2.13;;;;;;;;;;4937672;29;20031;-61
2023/08/07 08:27:56;;;;;;;3.47;1.70;;;;;;;;;;4937854;29;20031;-60
2023/08/07 08:30:22;;;;;;;3.13;1.52;;;;;;;;;;4943634;28;20027;-60
2023/08/07 08:32:48;;;;;;;3.10;1.50;;;;;;;;;;4964919;28;20362;-60
2023/08/07 08:35:13;;;;;;;2.67;1.70;;;;;;;;;;4956821;28;20101;-63
2023/08/07 08:37:39;;;;;;;3.22;1.60;;;;;;;;;;4956816;28;20023;-63
2023/08/07 08:40:06;;;;;;;4.10;2.10;;;;;;;;;;4956974;28;20051;-63
2023/08/07 08:42:32;;;;;;;4.20;1.52;;;;;;;;;;4956981;28;20023;-60
2023/08/07 08:44:59;;;;;;;2.47;1.60;;;;;;;;;;4960715;28;20562;-63
2023/08/07 08:47:26;;;;;;;4.43;1.77;;;;;;;;;;4976024;28;20043;-62
2023/08/07 08:50:02;;;;;;;4.22;1.67;;;;;;;;;;4976150;28;20030;-64
2023/08/07 08:52:31;;;;;;;3.42;1.90;;;;;;;;;;4961044;28;20023;-63
2023/08/07 08:54:58;;;;;;;3.08;1.55;;;;;;;;;;4956521;28;20030;-63
2023/08/07 08:57:25;;;;;;;2.53;1.50;;;;;;;;;;4956871;28;20024;-63
2023/08/07 08:59:51;;;;;;;3.88;1.70;;;;;;;;;;4956646;28;20019;-63
2023/08/07 09:02:17;;;;;;;2.75;1.48;;;;;;;;;;4956688;28;20057;-63
2023/08/07 09:04:43;;;;;;;5.80;1.50;;;;;;;;;;4945290;28;20083;-63
2023/08/07 09:07:10;;;;;;;4.18;1.60;;;;;;;;;;4937054;29;20031;-60
2023/08/07 09:09:36;;;;;;;3.42;1.70;;;;;;;;;;4937098;29;20086;-63
2023/08/07 09:12:03;;;;;;;4.22;1.60;;;;;;;;;;4937273;29;20027;-62
2023/08/07 09:14:33;;;;;;;4.43;1.60;;;;;;;;;;4937306;29;20351;-63
2023/08/07 09:17:01;;;;;;;4.18;1.48;;;;;;;;;;4936990;29;20088;-61
2023/08/07 09:19:27;;;;;;;6.88;1.80;;;;;;;;;;4936935;29;20032;-63
2023/08/07 09:21:53;;;;;;;3.88;1.40;;;;;;;;;;4936858;29;20102;-66
2023/08/07 09:24:21;;;;;;;5.22;1.95;;;;;;;;;;4937089;29;20083;-63
2023/08/07 09:26:47;;;;;;;4.43;2.60;;;;;;;;;;4936492;29;20059;-63
2023/08/07 09:29:13;;;;;;;10.82;1.52;;;;;;;;;;4936705;29;20524;-60
2023/08/07 09:31:45;;;;;;;5.15;1.50;;;;;;;;;;4963119;28;20069;-61
2023/08/07 09:34:11;;;;;;;3.10;1.50;;;;;;;;;;4975243;28;20053;-62
2023/08/07 09:36:38;;;;;;;3.78;1.38;;;;;;;;;;4955949;28;20038;-60
2023/08/07 09:39:04;;;;;;;3.75;1.45;;;;;;;;;;4955879;28;20038;-62
2023/08/07 09:41:32;;;;;;;5.43;1.70;;;;;;;;;;4955595;28;20126;-61
2023/08/07 09:43:58;;;;;;;7.28;1.90;;;;;;;;;;4955488;28;20047;-61
2023/08/07 09:46:25;;;;;;;5.82;1.50;;;;;;;;;;4970806;28;20042;-63
2023/08/07 09:48:51;;;;;;;4.35;1.50;;;;;;;;;;4974792;28;20031;-61
2023/08/07 09:51:16;;;;;;;3.28;1.52;;;;;;;;;;4969389;28;20042;-61
2023/08/07 09:53:42;;;;;;;3.90;1.40;;;;;;;;;;4955441;28;20031;-61
2023/08/07 09:56:08;;;;;;;3.40;1.50;;;;;;;;;;4955468;28;20027;-63
2023/08/07 09:58:34;;;;;;;7.32;1.88;;;;;;;;;;4955570;28;20035;-61
2023/08/07 10:01:02;;;;;;;4.22;1.17;;;;;;;;;;4955510;28;20456;-61
2023/08/07 10:03:28;;;;;;;3.50;1.70;;;;;;;;;;4953307;28;20027;-61
2023/08/07 10:05:54;;;;;;;6.85;1.75;;;;;;;;;;4935719;29;20488;-60
2023/08/07 10:08:21;;;;;;;8.45;2.22;;;;;;;;;;4935899;29;20027;-60
2023/08/07 10:10:46;;;;;;;12.25;2.15;;;;;;;;;;4936272;29;20062;-61
2023/08/07 10:13:13;;;;;;;8.48;2.33;;;;;;;;;;4936069;29;20074;-61
2023/08/07 10:15:40;;;;;;;4.82;1.50;;;;;;;;;;4935915;29;20035;-61
2023/08/07 10:18:06;;;;;;;9.07;2.63;;;;;;;;;;4935997;29;20031;-61
2023/08/07 10:20:31;;;;;;;8.95;1.90;;;;;;;;;;4935856;29;20027;-60
2023/08/07 10:23:00;;;;;;;9.75;2.70;;;;;;;;;;4935887;29;20031;-61
2023/08/07 10:25:28;;;;;;;11.00;2.28;;;;;;;;;;4935749;29;20030;-60
2023/08/07 10:27:56;;;;;;;10.50;2.35;;;;;;;;;;4935995;29;20035;-63
2023/08/07 10:30:23;;;;;;;9.98;2.47;;;;;;;;;;4941378;28;20101;-63
2023/08/07 10:32:49;;;;;;;10.82;2.17;;;;;;;;;;4974268;28;20457;-61
2023/08/07 10:35:30;;;;;;;23.73;4.13;;;;;;;;;;4966512;28;20102;-63
2023/08/07 10:38:06;;;;;;;7.65;2.38;;;;;;;;;;4955010;28;20058;-61
2023/08/07 10:40:31;;;;;;;7.28;2.08;;;;;;;;;;4954880;28;20034;-61
2023/08/07 10:43:06;;;;;;;8.00;2.28;;;;;;;;;;4954464;28;20031;-61
2023/08/07 10:45:34;;;;;;;7.88;2.25;;;;;;;;;;4963142;28;20062;-61
2023/08/07 10:48:06;;;;;;;5.93;2.10;;;;;;;;;;4974048;28;20085;-61
2023/08/07 10:50:32;;;;;;;7.97;2.22;;;;;;;;;;4973976;28;20031;-63
2023/08/07 10:53:04;;;;;;;7.57;1.92;;;;;;;;;;4955277;28;20050;-61
2023/08/07 10:55:45;;;;;;;4.95;1.63;;;;;;;;;;4954570;28;20061;-61
2023/08/07 10:58:30;;;;;;;7.05;1.75;;;;;;;;;;4954782;28;20024;-61
2023/08/07 11:01:22;;;;;;;4.90;1.65;;;;;;;;;;4954691;28;20031;-63
2023/08/07 11:03:55;;;;;;;6.80;1.90;;;;;;;;;;4950527;28;20060;-62
2023/08/07 11:06:28;;;;;;;8.13;1.95;;;;;;;;;;4935317;29;20042;-62
2023/08/07 11:08:54;;;;;;;7.30;1.70;;;;;;;;;;4935373;29;20028;-62
2023/08/07 11:11:19;;;;;;;10.45;2.05;;;;;;;;;;4935490;29;20041;-63
2023/08/07 11:13:45;;;;;;;8.20;1.60;;;;;;;;;;4935637;29;20385;-61
2023/08/07 11:16:11;;;;;;;6.32;1.60;;;;;;;;;;4937517;29;20083;-61
2023/08/07 11:18:40;;;;;;;7.65;1.60;;;;;;;;;;4938887;29;20465;-61
2023/08/07 11:21:06;;;;;;;6.55;1.88;;;;;;;;;;4939345;29;20110;-62
2023/08/07 11:23:32;;;;;;;6.80;1.60;;;;;;;;;;4938937;29;20114;-62
2023/08/07 11:25:57;;;;;;;8.32;2.05;;;;;;;;;;4939227;29;20437;-61
2023/08/07 11:28:24;;;;;;;8.73;1.85;;;;;;;;;;4939022;29;20046;-61
2023/08/07 11:30:51;;;;;;;8.63;2.20;;;;;;;;;;4952117;28;20023;-61
2023/08/07 11:33:20;;;;;;;7.72;1.80;;;;;;;;;;4977186;28;20068;-62
2023/08/07 11:35:47;;;;;;;7.33;2.03;;;;;;;;;;4965184;28;20067;-61
2023/08/07 11:38:13;;;;;;;7.43;2.08;;;;;;;;;;4958006;28;20661;-63
2023/08/07 11:40:38;;;;;;;6.38;2.13;;;;;;;;;;4958048;28;20139;-61
2023/08/07 11:43:04;;;;;;;4.90;1.40;;;;;;;;;;4957755;28;20055;-62
2023/08/07 11:45:29;;;;;;;5.10;1.83;;;;;;;;;;4965904;28;20035;-62
2023/08/07 11:47:56;;;;;;;6.47;1.75;;;;;;;;;;4977159;28;20531;-61
2023/08/07 11:50:27;;;;;;;7.93;2.00;;;;;;;;;;4977112;28;20379;-61
2023/08/07 11:52:53;;;;;;;11.02;2.30;;;;;;;;;;4959021;28;20122;-62
2023/08/07 11:55:19;;;;;;;7.63;1.90;;;;;;;;;;4957530;28;20162;-62
2023/08/07 11:57:47;;;;;;;8.85;1.92;;;;;;;;;;4957578;28;20035;-61
2023/08/07 12:00:13;;;;;;;8.32;2.22;;;;;;;;;;4957421;29;20027;-61
2023/08/07 12:02:43;;;;;;;12.98;2.45;;;;;;;;;;4955854;28;20042;-62
2023/08/07 12:05:13;;;;;;;7.50;1.83;;;;;;;;;;4943080;28;20064;-65
2023/08/07 12:07:39;;;;;;;10.23;1.85;;;;;;;;;;4938186;29;20039;-66
2023/08/07 12:10:07;;;;;;;9.75;1.90;;;;;;;;;;4937918;29;20034;-62
2023/08/07 12:12:35;;;;;;;5.22;1.65;;;;;;;;;;4938137;29;20118;-62
2023/08/07 12:15:01;;;;;;;11.32;2.85;;;;;;;;;;4937540;29;20020;-62
2023/08/07 12:17:26;;;;;;;7.75;1.70;;;;;;;;;;4937203;29;20110;-62
2023/08/07 12:19:51;;;;;;;8.02;2.63;;;;;;;;;;4937112;29;20067;-61
2023/08/07 12:22:19;;;;;;;4.80;1.77;;;;;;;;;;4954233;29;20369;-63
2023/08/07 12:24:45;;;;;;;8.82;2.20;;;;;;;;;;4956814;28;20432;-62
2023/08/07 12:27:11;;;;;;;12.45;2.28;;;;;;;;;;4956181;28;20078;-62
2023/08/07 12:29:36;;;;;;;7.65;2.00;;;;;;;;;;4956310;28;20043;-62
2023/08/07 12:32:02;;;;;;;7.45;2.10;;;;;;;;;;4973141;28;20035;-62
2023/08/07 12:34:28;;;;;;;13.38;2.35;;;;;;;;;;4975148;28;20089;-62
2023/08/07 12:36:53;;;;;;;8.15;2.50;;;;;;;;;;4956579;28;20105;-63
2023/08/07 12:39:20;;;;;;;8.50;2.40;;;;;;;;;;4956632;28;20023;-63
2023/08/07 12:41:48;;;;;;;6.20;2.20;;;;;;;;;;4956742;28;20062;-63
2023/08/07 12:44:13;;;;;;;12.50;2.78;;;;;;;;;;4956201;28;20047;-62
2023/08/07 12:46:40;;;;;;;7.70;2.35;;;;;;;;;;4973960;28;20053;-63
2023/08/07 12:49:08;;;;;;;8.15;2.90;;;;;;;;;;4975718;28;20053;-62
2023/08/07 12:51:34;;;;;;;5.15;1.73;;;;;;;;;;4968030;28;20369;-63
2023/08/07 12:53:59;;;;;;;15.20;2.75;;;;;;;;;;4956451;28;20030;-63
2023/08/07 12:56:24;;;;;;;6.68;2.10;;;;;;;;;;4956299;28;20027;-62
2023/08/07 12:58:50;;;;;;;4.97;1.90;;;;;;;;;;4956143;28;20090;-62
2023/08/07 13:01:15;;;;;;;6.82;1.95;;;;;;;;;;4956201;28;20362;-63
2023/08/07 13:03:41;;;;;;;16.33;3.17;;;;;;;;;;4955980;28;20027;-63
2023/08/07 13:06:08;;;;;;;6.43;2.50;;;;;;;;;;4956068;28;20051;-63
2023/08/07 13:08:34;;;;;;;12.05;2.42;;;;;;;;;;4956180;28;20024;-62
2023/08/07 13:11:01;;;;;;;6.38;2.08;;;;;;;;;;4955960;28;20035;-62
2023/08/07 13:13:27;;;;;;;7.05;2.33;;;;;;;;;;4955869;28;20027;-62
2023/08/07 13:15:53;;;;;;;7.70;1.98;;;;;;;;;;4956094;28;20493;-61
2023/08/07 13:18:19;;;;;;;6.68;1.80;;;;;;;;;;4955986;28;20115;-62
2023/08/07 13:20:45;;;;;;;10.48;2.30;;;;;;;;;;4956100;28;20030;-61
2023/08/07 13:23:11;;;;;;;12.00;2.33;;;;;;;;;;4955862;28;20027;-62
2023/08/07 13:25:37;;;;;;;8.07;2.20;;;;;;;;;;4955687;28;20070;-64
2023/08/07 13:28:06;;;;;;;6.47;2.10;;;;;;;;;;4955703;28;20032;-62
2023/08/07 13:30:32;;;;;;;8.88;2.65;;;;;;;;;;4959981;28;20452;-61
2023/08/07 13:32:58;;;;;;;7.95;2.33;;;;;;;;;;4974901;28;20110;-62
2023/08/07 13:35:23;;;;;;;9.90;2.05;;;;;;;;;;4966064;28;20110;-62
2023/08/07 13:37:48;;;;;;;7.78;2.05;;;;;;;;;;4954786;28;20023;-62
2023/08/07 13:40:14;;;;;;;7.65;2.20;;;;;;;;;;4955584;28;20035;-62
2023/08/07 13:42:39;;;;;;;5.30;2.30;;;;;;;;;;4955168;28;20464;-62
2023/08/07 13:45:05;;;;;;;8.45;2.47;;;;;;;;;;4960272;28;20043;-63
2023/08/07 13:47:31;;;;;;;10.98;2.70;;;;;;;;;;4974198;28;20027;-62
2023/08/07 13:49:58;;;;;;;9.68;2.20;;;;;;;;;;4974533;28;20037;-62
2023/08/07 13:52:23;;;;;;;8.35;2.58;;;;;;;;;;4960530;28;20024;-62
2023/08/07 13:54:50;;;;;;;7.90;2.55;;;;;;;;;;4954969;28;20057;-62
2023/08/07 13:57:16;;;;;;;6.25;2.20;;;;;;;;;;4954858;28;20049;-62
2023/08/07 13:59:42;;;;;;;13.13;2.22;;;;;;;;;;4955352;28;20457;-62
2023/08/07 14:02:07;;;;;;;6.55;2.03;;;;;;;;;;4954818;28;20039;-62
2023/08/07 14:04:33;;;;;;;8.30;2.70;;;;;;;;;;4945153;28;20039;-62
2023/08/07 14:06:59;;;;;;;5.53;1.65;;;;;;;;;;4935864;29;20078;-62
2023/08/07 14:09:25;;;;;;;6.50;2.15;;;;;;;;;;4935614;29;20035;-62
2023/08/07 14:11:50;;;;;;;10.00;2.00;;;;;;;;;;4935735;29;20392;-63
2023/08/07 14:14:16;;;;;;;10.45;2.20;;;;;;;;;;4935774;29;20032;-62
2023/08/07 14:16:42;;;;;;;8.75;1.83;;;;;;;;;;4934277;29;20036;-62
2023/08/07 14:19:08;;;;;;;9.05;2.17;;;;;;;;;;4935720;29;20100;-62
2023/08/07 14:21:33;;;;;;;8.40;2.30;;;;;;;;;;4935584;29;20448;-62
2023/08/07 14:23:59;;;;;;;13.10;2.75;;;;;;;;;;4935530;29;20151;-62
2023/08/07 14:26:25;;;;;;;7.60;2.10;;;;;;;;;;4935430;29;20385;-63
2023/08/07 14:28:50;;;;;;;5.72;1.73;;;;;;;;;;4935428;29;20393;-63
2023/08/07 14:31:16;;;;;;;7.80;1.70;;;;;;;;;;4955709;28;20102;-62
2023/08/07 14:33:41;;;;;;;9.13;1.85;;;;;;;;;;4973938;28;20030;-62
2023/08/07 14:36:07;;;;;;;7.13;1.90;;;;;;;;;;4959488;28;20432;-62
2023/08/07 14:38:32;;;;;;;9.40;1.77;;;;;;;;;;4954637;28;20039;-62